createdAt,value
2022-11-06T00:00:16.077Z,4.27
2022-11-06T00:02:42.862Z,4.28
2022-11-06T00:05:28.634Z,4.12
2022-11-06T00:07:55.156Z,4.03
2022-11-06T00:10:21.998Z,4.06
2022-11-06T00:12:49.124Z,3.92
2022-11-06T00:15:15.976Z,4.15
2022-11-06T00:17:42.412Z,4.00
2022-11-06T00:20:09.829Z,3.91
2022-11-06T00:22:37.176Z,3.83
2022-11-06T00:25:04.999Z,4.09
2022-11-06T00:27:31.468Z,3.85
2022-11-06T00:29:57.857Z,3.90
2022-11-06T00:32:24.254Z,4.00
2022-11-06T00:34:50.657Z,3.82
2022-11-06T00:37:17.057Z,3.65
2022-11-06T00:39:43.453Z,3.79
2022-11-06T00:42:10.032Z,3.79
2022-11-06T00:44:36.437Z,3.58
2022-11-06T00:47:02.894Z,3.75
2022-11-06T00:49:29.259Z,3.69
2022-11-06T00:51:55.665Z,3.71
2022-11-06T00:54:22.071Z,3.63
2022-11-06T00:56:48.499Z,3.66
2022-11-06T00:59:14.943Z,3.85
2022-11-06T01:01:44.182Z,3.82
2022-11-06T01:04:16.348Z,3.81
2022-11-06T01:06:45.286Z,3.87
2022-11-06T01:09:14.304Z,3.81
2022-11-06T01:12:11.657Z,3.57
2022-11-06T01:14:30.769Z,3.75
2022-11-06T01:16:57.237Z,3.63
2022-11-06T01:19:24.036Z,3.61
2022-11-06T01:21:52.775Z,3.79
2022-11-06T01:24:24.913Z,3.91
2022-11-06T01:27:25.051Z,3.90
2022-11-06T01:29:38.226Z,3.43
2022-11-06T01:32:05.070Z,3.57
2022-11-06T01:34:31.662Z,3.49
2022-11-06T01:36:58.089Z,3.50
2022-11-06T01:39:24.489Z,3.61
2022-11-06T01:41:52.567Z,3.39
2022-11-06T01:44:40.590Z,3.31
2022-11-06T01:47:24.865Z,3.43
2022-11-06T01:49:55.180Z,3.50
2022-11-06T01:52:23.488Z,3.63
2022-11-06T01:54:53.122Z,3.46
2022-11-06T01:57:19.830Z,3.33
2022-11-06T01:59:46.565Z,3.54
2022-11-06T02:02:16.007Z,3.56
2022-11-06T02:04:45.308Z,3.53
2022-11-06T02:07:16.647Z,3.50
2022-11-06T02:09:43.324Z,3.38
2022-11-06T02:12:28.634Z,3.26
2022-11-06T02:15:10.795Z,3.23
2022-11-06T02:17:46.191Z,3.22
2022-11-06T02:20:27.703Z,3.17
2022-11-06T02:23:15.773Z,3.20
2022-11-06T02:26:08.817Z,3.11
2022-11-06T02:28:41.414Z,3.05
2022-11-06T02:31:16.256Z,3.16
2022-11-06T02:33:54.269Z,2.95
2022-11-06T02:36:27.461Z,2.91
2022-11-06T02:38:58.868Z,3.09
2022-11-06T02:41:39.383Z,3.00
2022-11-06T02:44:13.708Z,3.30
2022-11-06T02:46:46.671Z,3.01
2022-11-06T02:49:47.221Z,3.20
2022-11-06T02:52:35.872Z,3.35
2022-11-06T02:55:28.356Z,3.56
2022-11-06T02:58:08.960Z,3.29
2022-11-06T03:00:37.558Z,3.36
2022-11-06T03:03:17.021Z,3.35
2022-11-06T03:06:09.879Z,3.37
2022-11-06T03:08:59.087Z,3.49
2022-11-06T03:11:29.679Z,3.44
2022-11-06T03:13:58.940Z,3.66
2022-11-06T03:16:57.654Z,3.52
2022-11-06T03:20:03.488Z,3.52
2022-11-06T03:22:40.351Z,3.55
2022-11-06T03:25:18.139Z,3.45
2022-11-06T03:28:03.025Z,3.46
2022-11-06T03:30:31.913Z,3.47
2022-11-06T03:33:13.609Z,3.45
2022-11-06T03:35:45.592Z,3.60
2022-11-06T03:38:17.244Z,3.30
2022-11-06T03:40:47.629Z,3.20
2022-11-06T03:43:17.905Z,3.34
2022-11-06T03:45:47.073Z,3.30
2022-11-06T03:48:15.784Z,3.34
2022-11-06T03:51:13.639Z,3.46
2022-11-06T03:53:48.365Z,3.50
2022-11-06T03:56:25.148Z,3.56
2022-11-06T03:58:53.732Z,3.49
2022-11-06T04:01:25.300Z,3.37
2022-11-06T04:03:54.375Z,3.22
2022-11-06T04:06:30.404Z,3.44
2022-11-06T04:09:20.074Z,3.36
2022-11-06T04:12:07.935Z,3.48
2022-11-06T04:14:38.510Z,3.38
2022-11-06T04:17:08.751Z,3.26
2022-11-06T04:19:35.252Z,3.29
2022-11-06T04:22:23.395Z,3.03
2022-11-06T04:25:46.189Z,3.32
2022-11-06T04:28:31.108Z,3.00
2022-11-06T04:31:12.145Z,3.11
2022-11-06T04:34:10.776Z,3.13
2022-11-06T04:36:50.668Z,3.17
2022-11-06T04:39:29.882Z,3.25
2022-11-06T04:42:23.587Z,3.51
2022-11-06T04:44:55.221Z,3.44
2022-11-06T04:47:22.659Z,3.14
2022-11-06T04:49:52.789Z,3.03
2022-11-06T04:52:23.894Z,3.03
2022-11-06T04:54:50.973Z,3.14
2022-11-06T04:57:17.457Z,2.93
2022-11-06T04:59:43.948Z,2.95
2022-11-06T05:02:11.180Z,2.93
2022-11-06T05:04:37.692Z,2.90
2022-11-06T05:07:04.145Z,2.90
2022-11-06T05:09:30.844Z,2.95
2022-11-06T05:11:57.329Z,3.07
2022-11-06T05:14:24.216Z,3.13
2022-11-06T05:16:50.652Z,3.04
2022-11-06T05:19:17.169Z,3.25
2022-11-06T05:22:01.994Z,3.27
2022-11-06T05:24:28.672Z,3.41
2022-11-06T05:26:59.294Z,3.39
2022-11-06T05:29:26.756Z,3.30
2022-11-06T05:31:53.203Z,3.13
2022-11-06T05:34:19.687Z,3.09
2022-11-06T05:36:46.211Z,2.94
2022-11-06T05:39:12.724Z,2.51
2022-11-06T05:41:39.178Z,2.88
2022-11-06T05:44:05.759Z,2.70
2022-11-06T05:46:49.569Z,2.78
2022-11-06T05:49:17.425Z,2.90
2022-11-06T05:51:43.919Z,3.00
2022-11-06T05:54:10.329Z,2.91
2022-11-06T05:56:36.781Z,2.98
2022-11-06T05:59:04.138Z,2.74
2022-11-06T06:01:30.770Z,2.80
2022-11-06T06:03:57.246Z,2.62
2022-11-06T06:06:23.713Z,2.77
2022-11-06T06:08:50.246Z,2.75
2022-11-06T06:11:16.692Z,2.64
2022-11-06T06:13:43.084Z,2.82
2022-11-06T06:16:09.484Z,2.90
2022-11-06T06:18:36.047Z,2.78
2022-11-06T06:21:02.545Z,2.86
2022-11-06T06:23:28.965Z,2.65
2022-11-06T06:25:57.277Z,2.69
2022-11-06T06:28:23.682Z,2.66
2022-11-06T06:30:50.158Z,2.81
2022-11-06T06:33:16.570Z,2.85
2022-11-06T06:35:43.023Z,2.63
2022-11-06T06:38:09.607Z,2.71
2022-11-06T06:40:36.119Z,2.64
2022-11-06T06:43:02.508Z,2.94
2022-11-06T06:45:29.578Z,2.91
2022-11-06T06:48:01.121Z,2.81
2022-11-06T06:50:27.458Z,2.95
2022-11-06T06:52:58.187Z,2.99
2022-11-06T06:55:25.512Z,2.92
2022-11-06T06:58:02.112Z,2.91
2022-11-06T07:00:29.358Z,2.94
2022-11-06T07:02:55.923Z,3.07
2022-11-06T07:05:22.756Z,2.94
2022-11-06T07:07:49.263Z,2.98
2022-11-06T07:10:15.880Z,2.84
2022-11-06T07:12:42.297Z,3.13
2022-11-06T07:15:09.261Z,3.33
2022-11-06T07:17:35.884Z,3.18
2022-11-06T07:20:03.259Z,3.31
2022-11-06T07:22:35.585Z,3.32
2022-11-06T07:25:04.159Z,3.36
2022-11-06T07:27:30.766Z,3.37
2022-11-06T07:29:57.300Z,3.57
2022-11-06T07:32:23.709Z,3.40
2022-11-06T07:34:50.165Z,3.44
2022-11-06T07:37:16.626Z,3.60
2022-11-06T07:39:43.035Z,3.63
2022-11-06T07:42:09.559Z,3.57
2022-11-06T07:44:35.965Z,3.73
2022-11-06T07:47:02.415Z,3.69
2022-11-06T07:49:28.868Z,3.60
2022-11-06T07:51:55.267Z,3.62
2022-11-06T07:54:21.632Z,3.80
2022-11-06T07:56:48.192Z,3.73
2022-11-06T07:59:14.666Z,3.93
2022-11-06T08:01:41.275Z,4.20
2022-11-06T08:04:07.852Z,4.16
2022-11-06T08:06:34.318Z,4.31
2022-11-06T08:09:00.832Z,4.29
2022-11-06T08:11:27.668Z,4.54
2022-11-06T08:13:54.122Z,4.74
2022-11-06T08:16:20.502Z,4.87
2022-11-06T08:18:46.900Z,4.85
2022-11-06T08:21:13.533Z,4.99
2022-11-06T08:23:39.947Z,4.86
2022-11-06T08:26:07.278Z,4.98
2022-11-06T08:28:34.396Z,4.95
2022-11-06T08:31:08.060Z,5.09
2022-11-06T08:33:36.367Z,4.94
2022-11-06T08:36:04.466Z,5.46
2022-11-06T08:38:31.317Z,5.40
2022-11-06T08:40:57.707Z,5.18
2022-11-06T08:43:27.398Z,5.70
2022-11-06T08:45:54.083Z,5.89
2022-11-06T08:48:20.634Z,5.66
2022-11-06T08:50:47.025Z,5.90
2022-11-06T08:53:13.833Z,5.59
2022-11-06T08:55:40.610Z,5.61
2022-11-06T08:58:07.946Z,5.63
2022-11-06T09:00:35.183Z,5.94
2022-11-06T09:03:04.828Z,5.77
2022-11-06T09:05:31.409Z,5.94
2022-11-06T09:07:59.038Z,6.26
2022-11-06T09:10:26.501Z,6.59
2022-11-06T09:12:53.022Z,6.98
2022-11-06T09:15:20.164Z,7.68
2022-11-06T09:17:48.553Z,8.08
2022-11-06T09:20:18.814Z,7.70
2022-11-06T09:22:46.268Z,8.47
2022-11-06T09:25:13.339Z,8.35
2022-11-06T09:41:04.201Z,8.80
2022-11-06T09:44:05.654Z,8.81
2022-11-06T09:49:18.428Z,9.38
2022-11-06T09:51:50.721Z,10.67
2022-11-06T09:54:31.184Z,10.04
2022-11-06T09:57:13.355Z,10.43
2022-11-06T09:59:41.435Z,9.61
2022-11-06T10:02:24.021Z,9.79
2022-11-06T10:05:15.107Z,9.80
2022-11-06T10:07:43.818Z,9.45
2022-11-06T10:10:19.452Z,9.51
2022-11-06T10:13:13.644Z,9.68
2022-11-06T10:15:49.576Z,10.03
2022-11-06T10:18:28.762Z,9.70
2022-11-06T10:21:10.788Z,10.47
2022-11-06T10:23:53.175Z,10.30
2022-11-06T10:26:40.847Z,10.84
2022-11-06T10:29:52.112Z,10.75
2022-11-06T10:32:35.245Z,10.72
2022-11-06T10:35:15.944Z,10.21
2022-11-06T10:38:15.032Z,10.77
2022-11-06T10:40:46.280Z,11.01
2022-11-06T10:43:29.273Z,10.81
2022-11-06T10:46:22.318Z,10.73
2022-11-06T10:48:59.428Z,11.05
2022-11-06T10:51:33.584Z,11.10
2022-11-06T10:54:18.615Z,11.36
2022-11-06T10:57:20.583Z,11.15
2022-11-06T10:59:48.583Z,11.46
2022-11-06T11:02:32.027Z,11.48
2022-11-06T11:04:58.838Z,11.37
2022-11-06T11:07:29.391Z,12.06
2022-11-06T11:09:55.872Z,13.07
2022-11-06T11:12:32.834Z,12.24
2022-11-06T11:15:11.966Z,11.99
2022-11-06T11:20:34.410Z,11.42
2022-11-06T11:25:36.139Z,11.30
2022-11-06T11:28:05.052Z,11.31
2022-11-06T11:30:31.751Z,11.63
2022-11-06T11:32:58.688Z,12.55
2022-11-06T11:35:30.724Z,11.66
2022-11-06T11:38:14.455Z,11.74
2022-11-06T11:40:41.485Z,12.63
2022-11-06T11:43:30.307Z,12.73
2022-11-06T11:46:14.556Z,13.79
2022-11-06T11:48:49.696Z,13.35
2022-11-06T11:51:32.347Z,14.33
2022-11-06T11:54:04.547Z,15.25
2022-11-06T11:57:02.295Z,13.96
2022-11-06T11:59:20.976Z,14.36
2022-11-06T12:01:48.602Z,14.36
2022-11-06T12:04:26.480Z,14.43
2022-11-06T12:06:55.200Z,14.35
2022-11-06T12:09:23.125Z,14.64
2022-11-06T12:11:49.939Z,14.46
2022-11-06T12:14:27.301Z,13.99
2022-11-06T12:17:04.226Z,13.67
2022-11-06T12:19:33.331Z,14.84
2022-11-06T12:22:05.561Z,12.88
2022-11-06T12:24:47.330Z,12.18
2022-11-06T12:27:17.297Z,11.55
2022-11-06T12:30:01.389Z,11.23
2022-11-06T12:32:36.909Z,11.40
2022-11-06T12:38:22.520Z,11.62
2022-11-06T12:41:01.846Z,12.16
2022-11-06T12:43:37.350Z,12.14
2022-11-06T12:46:22.473Z,12.90
2022-11-06T12:49:01.118Z,13.40
2022-11-06T12:51:47.531Z,12.02
2022-11-06T12:54:28.886Z,10.68
2022-11-06T12:57:13.588Z,9.93
2022-11-06T13:00:11.009Z,9.99
2022-11-06T13:05:31.247Z,9.02
2022-11-06T13:08:26.252Z,9.09
2022-11-06T13:11:13.070Z,9.22
2022-11-06T13:19:48.535Z,8.86
2022-11-06T13:22:24.299Z,9.28
2022-11-06T13:25:12.657Z,9.15
2022-11-06T13:28:00.645Z,9.23
2022-11-06T13:30:29.579Z,9.32
2022-11-06T13:33:10.732Z,9.25
2022-11-06T13:35:40.204Z,9.58
2022-11-06T13:38:08.520Z,9.49
2022-11-06T13:40:41.415Z,9.47
2022-11-06T13:43:16.924Z,9.04
2022-11-06T13:45:52.993Z,9.15
2022-11-06T13:48:47.250Z,9.00
2022-11-06T13:51:53.224Z,9.16
2022-11-06T13:54:25.515Z,9.03
2022-11-06T13:57:05.856Z,8.95
2022-11-06T14:00:03.212Z,8.88
2022-11-06T14:02:38.460Z,8.79
2022-11-06T14:05:25.975Z,9.18
2022-11-06T14:07:53.779Z,8.90
2022-11-06T14:10:23.764Z,8.63
2022-11-06T14:12:50.774Z,8.90
2022-11-06T14:15:20.143Z,8.67
2022-11-06T14:17:58.600Z,8.55
2022-11-06T14:20:39.453Z,8.64
2022-11-06T14:23:31.081Z,8.80
2022-11-06T14:26:12.454Z,8.96
2022-11-06T14:28:43.629Z,8.83
2022-11-06T14:31:13.407Z,8.66
2022-11-06T14:33:44.681Z,8.76
2022-11-06T14:36:24.026Z,8.78
2022-11-06T14:38:51.510Z,8.64
2022-11-06T14:41:36.067Z,8.35
2022-11-06T14:44:25.039Z,8.47
2022-11-06T14:46:58.922Z,8.37
2022-11-06T14:49:43.699Z,8.51
2022-11-06T14:52:13.887Z,8.38
2022-11-06T14:54:54.960Z,8.24
2022-11-06T14:57:48.891Z,8.36
2022-11-06T15:00:41.607Z,8.36
2022-11-06T15:03:21.996Z,8.20
2022-11-06T15:05:52.438Z,8.20
2022-11-06T15:08:48.037Z,8.16
2022-11-06T15:11:29.719Z,8.30
2022-11-06T15:14:16.389Z,8.22
2022-11-06T15:17:08.933Z,8.25
2022-11-06T15:19:41.334Z,8.31
2022-11-06T15:22:13.523Z,8.16
2022-11-06T15:24:47.798Z,8.21
2022-11-06T15:27:20.352Z,7.95
2022-11-06T15:29:51.998Z,7.94
2022-11-06T15:32:18.301Z,7.91
2022-11-06T15:34:59.911Z,8.03
2022-11-06T15:37:31.569Z,8.07
2022-11-06T15:40:01.331Z,7.80
2022-11-06T15:50:48.274Z,7.87
2022-11-06T15:53:21.388Z,7.74
2022-11-06T15:56:08.734Z,7.81
2022-11-06T15:58:37.487Z,7.49
2022-11-06T16:01:06.107Z,7.70
2022-11-06T16:06:21.404Z,7.15
2022-11-06T16:11:29.510Z,7.56
2022-11-06T16:13:56.191Z,7.40
2022-11-06T16:16:35.812Z,7.63
2022-11-06T16:19:05.172Z,7.66
2022-11-06T16:21:35.666Z,7.37
2022-11-06T16:24:11.027Z,7.40
2022-11-06T16:26:44.145Z,7.35
2022-11-06T16:29:23.885Z,7.39
2022-11-06T16:32:00.887Z,7.34
2022-11-06T16:34:30.058Z,7.16
2022-11-06T16:36:59.205Z,7.35
2022-11-06T16:39:40.260Z,6.87
2022-11-06T16:42:16.659Z,6.90
2022-11-06T16:44:43.135Z,6.90
2022-11-06T16:47:11.172Z,6.90
2022-11-06T16:49:38.670Z,6.83
2022-11-06T16:52:28.019Z,6.67
2022-11-06T16:55:00.566Z,6.66
2022-11-06T16:57:36.048Z,6.86
2022-11-06T17:00:08.834Z,6.70
2022-11-06T17:02:37.917Z,6.97
2022-11-06T17:05:19.877Z,6.84
2022-11-06T17:07:46.334Z,6.87
2022-11-06T17:10:34.356Z,6.88
2022-11-06T17:13:22.418Z,6.70
2022-11-06T17:15:57.551Z,6.44
2022-11-06T17:18:27.050Z,6.64
2022-11-06T17:20:56.399Z,6.71
2022-11-06T17:23:24.795Z,6.41
2022-11-06T17:25:55.956Z,6.42
2022-11-06T17:28:22.724Z,6.40
2022-11-06T17:30:49.382Z,6.45
2022-11-06T17:33:16.378Z,6.48
2022-11-06T17:35:43.090Z,6.57
2022-11-06T17:38:14.408Z,6.57
2022-11-06T17:40:41.676Z,6.47
2022-11-06T17:43:08.176Z,6.77
2022-11-06T17:45:34.619Z,6.78
2022-11-06T17:48:01.029Z,6.61
2022-11-06T17:50:27.554Z,6.31
2022-11-06T17:52:54.039Z,6.14
2022-11-06T17:55:20.687Z,5.99
2022-11-06T17:57:47.141Z,5.99
2022-11-06T18:00:13.966Z,6.21
2022-11-06T18:03:00.424Z,6.13
2022-11-06T18:05:26.877Z,6.33
2022-11-06T18:07:53.274Z,6.35
2022-11-06T18:10:19.789Z,6.28
2022-11-06T18:12:46.261Z,6.27
2022-11-06T18:15:12.979Z,6.04
2022-11-06T18:17:39.369Z,5.93
2022-11-06T18:20:06.419Z,5.94
2022-11-06T18:22:32.784Z,5.64
2022-11-06T18:24:59.310Z,5.89
2022-11-06T18:27:25.759Z,5.91
2022-11-06T18:29:52.193Z,5.98
2022-11-06T18:32:19.182Z,5.71
2022-11-06T18:34:45.576Z,5.51
2022-11-06T18:37:11.989Z,5.53
2022-11-06T18:39:39.683Z,6.00
2022-11-06T18:42:06.178Z,6.05
2022-11-06T18:44:34.949Z,5.63
2022-11-06T18:47:01.582Z,5.62
2022-11-06T18:49:28.011Z,5.84
2022-11-06T18:51:54.442Z,5.68
2022-11-06T18:54:20.858Z,5.63
2022-11-06T18:56:47.272Z,5.72
2022-11-06T18:59:16.459Z,5.89
2022-11-06T19:01:42.960Z,5.79
2022-11-06T19:04:10.626Z,5.90
2022-11-06T19:06:39.147Z,5.61
2022-11-06T19:09:09.517Z,5.24
2022-11-06T19:11:35.983Z,5.09
2022-11-06T19:14:02.410Z,5.42
2022-11-06T19:16:28.960Z,5.43
2022-11-06T19:21:28.971Z,5.07
2022-11-06T19:24:03.329Z,5.30
2022-11-06T19:26:31.711Z,5.60
2022-11-06T19:28:59.958Z,5.33
2022-11-06T19:31:29.203Z,5.16
2022-11-06T19:33:57.271Z,5.26
2022-11-06T19:36:25.111Z,5.38
2022-11-06T19:38:51.914Z,5.00
2022-11-06T19:41:18.396Z,5.23
2022-11-06T19:43:44.963Z,5.23
2022-11-06T19:46:11.642Z,5.20
2022-11-06T19:48:38.270Z,4.95
2022-11-06T19:51:09.976Z,4.98
2022-11-06T19:53:36.272Z,4.82
2022-11-06T19:56:08.223Z,4.98
2022-11-06T19:58:35.454Z,4.74
2022-11-06T20:01:09.511Z,4.91
2022-11-06T20:03:36.723Z,4.94
2022-11-06T20:06:07.867Z,4.68
2022-11-06T20:08:35.800Z,4.82
2022-11-06T20:16:31.280Z,4.77
2022-11-06T20:18:58.997Z,4.81
2022-11-06T20:21:27.967Z,4.92
2022-11-06T20:23:56.289Z,4.76
2022-11-06T20:26:23.372Z,4.81
2022-11-06T20:28:51.251Z,4.76
2022-11-06T20:33:57.571Z,4.31
2022-11-06T20:36:26.530Z,4.46
2022-11-06T20:38:54.427Z,4.60
2022-11-06T20:41:21.527Z,4.33
2022-11-06T20:43:48.132Z,4.20
2022-11-06T20:46:15.643Z,4.35
2022-11-06T20:48:42.979Z,4.65
2022-11-06T20:51:13.344Z,4.69
2022-11-06T20:53:40.394Z,4.41
2022-11-06T20:56:09.892Z,4.50
2022-11-06T20:58:36.847Z,4.63
2022-11-06T21:01:17.978Z,4.19
2022-11-06T21:03:45.246Z,4.52
2022-11-06T21:06:11.996Z,4.61
2022-11-06T21:08:40.035Z,4.26
2022-11-06T21:11:11.435Z,4.44
2022-11-06T21:13:40.392Z,4.44
2022-11-06T21:16:11.435Z,4.47
2022-11-06T21:18:39.213Z,4.55
2022-11-06T21:21:08.446Z,4.64
2022-11-06T21:23:35.773Z,4.89
2022-11-06T21:26:25.734Z,4.37
2022-11-06T21:28:52.673Z,4.51
2022-11-06T21:31:25.107Z,4.51
2022-11-06T21:33:53.213Z,4.24
2022-11-06T21:36:22.969Z,4.66
2022-11-06T21:38:50.003Z,4.72
2022-11-06T21:41:20.131Z,4.65
2022-11-06T21:43:48.152Z,4.46
2022-11-06T21:46:14.955Z,4.48
2022-11-06T21:48:46.948Z,4.26
2022-11-06T21:51:20.314Z,4.48
2022-11-06T21:54:05.657Z,4.53
2022-11-06T21:56:33.143Z,4.41
2022-11-06T21:59:01.468Z,4.66
2022-11-06T22:01:28.711Z,4.58
2022-11-06T22:03:55.345Z,4.26
2022-11-06T22:06:25.149Z,4.47
2022-11-06T22:08:54.151Z,4.69
2022-11-06T22:11:23.541Z,4.12
2022-11-06T22:16:28.347Z,4.60
2022-11-06T22:18:55.509Z,4.41
2022-11-06T22:21:24.496Z,4.53
2022-11-06T22:26:35.271Z,4.36
2022-11-06T22:29:06.288Z,4.52
2022-11-06T22:31:33.176Z,4.32
2022-11-06T22:33:59.702Z,4.33
2022-11-06T22:36:26.845Z,4.39
2022-11-06T22:44:10.083Z,4.55
2022-11-06T22:46:36.819Z,4.54
2022-11-06T22:49:04.254Z,4.31
2022-11-06T22:51:32.220Z,4.42
2022-11-06T22:53:59.816Z,4.72
2022-11-06T22:56:27.388Z,4.75
2022-11-06T22:58:55.218Z,4.89
2022-11-06T23:01:27.124Z,4.76
2022-11-06T23:03:56.699Z,4.79
2022-11-06T23:06:24.840Z,4.55
2022-11-06T23:08:54.571Z,4.79
2022-11-06T23:11:24.899Z,4.71
2022-11-06T23:13:51.879Z,4.74
2022-11-06T23:19:25.607Z,4.64
2022-11-06T23:22:12.059Z,4.76
2022-11-06T23:24:38.625Z,4.64
2022-11-06T23:27:05.460Z,4.63
2022-11-06T23:29:31.961Z,4.70
2022-11-06T23:31:58.356Z,4.84
2022-11-06T23:34:24.774Z,4.74
2022-11-06T23:36:51.454Z,4.48
2022-11-06T23:39:17.883Z,4.40
2022-11-06T23:49:50.123Z,4.73
2022-11-06T23:58:01.070Z,4.73
